createdAt,value
2022-09-11T00:01:45.524Z,99.90
2022-09-11T00:04:13.907Z,99.90
2022-09-11T00:06:43.713Z,99.90
2022-09-11T00:09:12.085Z,99.90
2022-09-11T00:11:43.792Z,99.90
2022-09-11T00:14:15.399Z,99.90
2022-09-11T00:16:47.242Z,99.90
2022-09-11T00:19:18.746Z,99.90
2022-09-11T00:21:47.495Z,99.90
2022-09-11T00:24:15.532Z,99.90
2022-09-11T00:26:43.715Z,99.90
2022-09-11T00:29:12.158Z,99.90
2022-09-11T00:31:41.706Z,99.90
2022-09-11T00:34:09.855Z,99.90
2022-09-11T00:36:41.213Z,99.90
2022-09-11T00:39:11.406Z,99.90
2022-09-11T00:41:42.322Z,99.90
2022-09-11T00:45:01.275Z,99.90
2022-09-11T00:47:32.014Z,99.90
2022-09-11T00:50:10.946Z,99.90
2022-09-11T00:52:43.234Z,99.90
2022-09-11T00:55:15.611Z,99.90
2022-09-11T00:57:48.265Z,99.90
2022-09-11T01:00:16.799Z,99.90
2022-09-11T01:02:50.406Z,99.90
2022-09-11T01:05:19.845Z,99.90
2022-09-11T01:07:48.893Z,99.90
2022-09-11T01:10:16.954Z,99.90
2022-09-11T01:12:54.876Z,99.90
2022-09-11T01:15:31.387Z,99.90
2022-09-11T01:18:09.202Z,99.90
2022-09-11T01:20:51.603Z,99.90
2022-09-11T01:23:35.712Z,99.90
2022-09-11T01:26:32.390Z,99.90
2022-09-11T01:29:07.249Z,99.90
2022-09-11T01:31:45.806Z,99.90
2022-09-11T01:34:22.848Z,99.90
2022-09-11T01:36:58.085Z,99.90
2022-09-11T01:39:34.549Z,99.90
2022-09-11T01:42:07.687Z,99.90
2022-09-11T01:44:42.327Z,99.90
2022-09-11T01:47:12.925Z,99.90
2022-09-11T01:49:47.991Z,99.90
2022-09-11T01:52:22.051Z,99.90
2022-09-11T01:54:55.737Z,99.90
2022-09-11T01:57:28.090Z,99.90
2022-09-11T02:00:02.149Z,99.90
2022-09-11T02:02:37.199Z,99.90
2022-09-11T02:05:11.077Z,99.90
2022-09-11T02:07:44.399Z,99.90
2022-09-11T02:10:17.178Z,99.90
2022-09-11T02:12:52.834Z,99.90
2022-09-11T02:15:27.176Z,99.90
2022-09-11T02:18:03.178Z,99.90
2022-09-11T02:20:31.370Z,99.90
2022-09-11T02:22:59.837Z,99.90
2022-09-11T02:25:27.930Z,99.90
2022-09-11T02:27:55.893Z,99.90
2022-09-11T02:30:25.174Z,99.90
2022-09-11T02:32:56.140Z,99.90
2022-09-11T02:35:25.345Z,99.90
2022-09-11T02:38:06.877Z,99.90
2022-09-11T02:40:48.453Z,99.90
2022-09-11T02:43:39.579Z,99.90
2022-09-11T02:46:30.942Z,99.90
2022-09-11T02:49:09.244Z,99.90
2022-09-11T02:51:47.938Z,99.90
2022-09-11T02:54:30.152Z,99.90
2022-09-11T02:57:07.346Z,99.90
2022-09-11T02:59:40.045Z,99.90
2022-09-11T03:02:16.422Z,99.90
2022-09-11T03:04:45.463Z,99.90
2022-09-11T03:07:13.556Z,99.90
2022-09-11T03:09:41.999Z,99.90
2022-09-11T03:12:10.255Z,99.90
2022-09-11T03:14:38.323Z,99.90
2022-09-11T03:17:06.384Z,99.90
2022-09-11T03:19:35.720Z,99.90
2022-09-11T03:22:03.993Z,99.90
2022-09-11T03:24:31.988Z,99.90
2022-09-11T03:26:59.962Z,99.90
2022-09-11T03:29:28.084Z,99.90
2022-09-11T03:31:58.644Z,99.90
2022-09-11T03:34:26.789Z,99.90
2022-09-11T03:36:56.066Z,99.90
2022-09-11T03:39:24.195Z,99.90
2022-09-11T03:41:52.241Z,99.90
2022-09-11T03:44:20.171Z,99.90
2022-09-11T03:46:48.113Z,99.90
2022-09-11T03:49:16.147Z,99.90
2022-09-11T03:51:44.098Z,99.90
2022-09-11T03:54:15.367Z,99.90
2022-09-11T03:56:43.892Z,99.90
2022-09-11T03:59:12.593Z,99.90
2022-09-11T04:01:40.626Z,99.90
2022-09-11T04:04:08.589Z,99.90
2022-09-11T04:06:36.799Z,99.90
2022-09-11T04:09:05.065Z,99.90
2022-09-11T04:11:38.824Z,99.90
2022-09-11T04:14:07.022Z,99.90
2022-09-11T04:16:35.589Z,99.90
2022-09-11T04:19:03.811Z,99.90
2022-09-11T04:21:33.954Z,99.90
2022-09-11T04:24:02.254Z,99.90
2022-09-11T04:26:34.028Z,99.90
2022-09-11T04:29:02.150Z,99.90
2022-09-11T04:31:30.199Z,99.90
2022-09-11T04:33:58.401Z,99.90
2022-09-11T04:36:27.073Z,99.90
2022-09-11T04:38:57.835Z,99.90
2022-09-11T04:41:26.501Z,99.90
2022-09-11T04:44:02.415Z,99.90
2022-09-11T04:46:32.250Z,99.90
2022-09-11T04:49:00.331Z,99.90
2022-09-11T04:51:30.328Z,99.90
2022-09-11T04:54:00.062Z,99.90
2022-09-11T04:56:30.578Z,99.90
2022-09-11T04:59:01.946Z,99.90
2022-09-11T05:01:32.363Z,99.90
2022-09-11T05:04:01.641Z,99.90
2022-09-11T05:06:30.689Z,99.90
2022-09-11T05:09:03.559Z,99.90
2022-09-11T05:11:31.892Z,99.90
2022-09-11T05:14:01.446Z,99.90
2022-09-11T05:16:31.104Z,99.90
2022-09-11T05:19:00.077Z,99.90
2022-09-11T05:21:29.612Z,99.90
2022-09-11T05:23:59.850Z,99.90
2022-09-11T05:26:30.526Z,99.90
2022-09-11T05:29:02.671Z,99.90
2022-09-11T05:31:32.024Z,99.90
2022-09-11T05:34:01.127Z,99.90
2022-09-11T05:36:31.006Z,99.90
2022-09-11T05:39:01.128Z,99.90
2022-09-11T05:41:29.121Z,99.90
2022-09-11T05:43:58.513Z,99.90
2022-09-11T05:46:27.960Z,99.90
2022-09-11T05:48:55.981Z,99.90
2022-09-11T05:51:24.272Z,99.90
2022-09-11T05:53:54.896Z,99.90
2022-09-11T05:56:25.185Z,99.90
2022-09-11T05:58:53.522Z,99.90
2022-09-11T06:01:24.827Z,99.90
2022-09-11T06:03:54.984Z,99.90
2022-09-11T06:06:25.080Z,99.90
2022-09-11T06:08:53.383Z,99.90
2022-09-11T06:11:23.109Z,99.90
2022-09-11T06:13:51.752Z,99.90
2022-09-11T06:16:22.285Z,99.90
2022-09-11T06:18:53.182Z,99.90
2022-09-11T06:21:23.523Z,99.90
2022-09-11T06:23:53.574Z,99.90
2022-09-11T06:26:23.653Z,99.90
2022-09-11T06:28:53.036Z,99.90
2022-09-11T06:31:23.039Z,99.90
2022-09-11T06:33:52.774Z,99.90
2022-09-11T06:36:24.284Z,99.90
2022-09-11T06:38:55.468Z,99.90
2022-09-11T06:41:24.473Z,99.90
2022-09-11T06:43:53.560Z,99.90
2022-09-11T06:46:24.201Z,99.90
2022-09-11T06:48:53.760Z,99.90
2022-09-11T06:51:23.916Z,99.90
2022-09-11T06:53:57.633Z,99.90
2022-09-11T06:56:26.223Z,99.90
2022-09-11T06:58:54.396Z,99.90
2022-09-11T07:01:24.360Z,99.90
2022-09-11T07:03:55.558Z,99.90
2022-09-11T07:06:25.880Z,99.90
2022-09-11T07:09:00.775Z,99.90
2022-09-11T07:11:32.393Z,99.90
2022-09-11T07:14:00.648Z,99.90
2022-09-11T07:16:31.327Z,99.90
2022-09-11T07:19:01.271Z,99.90
2022-09-11T07:21:29.884Z,99.90
2022-09-11T07:24:00.398Z,99.90
2022-09-11T07:26:31.899Z,99.90
2022-09-11T07:29:04.071Z,99.90
2022-09-11T07:31:39.415Z,99.90
2022-09-11T07:34:08.828Z,99.90
2022-09-11T07:36:37.460Z,99.90
2022-09-11T07:39:05.873Z,99.90
2022-09-11T07:41:34.731Z,99.90
2022-09-11T07:44:03.700Z,99.90
2022-09-11T07:46:32.824Z,99.90
2022-09-11T07:49:01.956Z,99.90
2022-09-11T07:51:31.413Z,99.90
2022-09-11T07:54:00.042Z,99.90
2022-09-11T07:56:28.929Z,99.90
2022-09-11T07:58:57.590Z,99.90
2022-09-11T08:01:29.611Z,99.90
2022-09-11T08:04:00.958Z,99.90
2022-09-11T08:06:32.884Z,99.90
2022-09-11T08:09:03.414Z,98.70
2022-09-11T08:11:36.166Z,99.30
2022-09-11T08:14:04.852Z,99.30
2022-09-11T08:16:33.016Z,98.40
2022-09-11T08:19:01.815Z,95.60
2022-09-11T08:21:31.556Z,97.10
2022-09-11T08:23:59.572Z,98.10
2022-09-11T08:26:30.254Z,99.90
2022-09-11T08:29:00.698Z,97.00
2022-09-11T08:31:29.315Z,98.30
2022-09-11T08:33:57.871Z,99.90
2022-09-11T08:36:26.186Z,99.20
2022-09-11T08:38:55.872Z,98.50
2022-09-11T08:41:41.908Z,98.30
2022-09-11T08:44:23.018Z,95.90
2022-09-11T08:46:56.919Z,95.20
2022-09-11T08:49:28.814Z,97.30
2022-09-11T08:52:00.039Z,97.30
2022-09-11T08:54:32.256Z,99.70
2022-09-11T08:57:11.694Z,97.50
2022-09-11T08:59:59.410Z,97.10
2022-09-11T09:02:51.579Z,98.30
2022-09-11T09:05:33.273Z,98.80
2022-09-11T09:08:19.201Z,99.90
2022-09-11T09:10:54.238Z,98.40
2022-09-11T09:13:45.374Z,98.30
2022-09-11T09:16:29.793Z,96.50
2022-09-11T09:19:05.417Z,96.60
2022-09-11T09:21:38.702Z,99.60
2022-09-11T09:24:19.280Z,97.70
2022-09-11T09:26:54.082Z,95.70
2022-09-11T09:29:24.708Z,96.40
2022-09-11T09:31:59.955Z,97.00
2022-09-11T09:34:31.905Z,98.20
2022-09-11T09:37:07.538Z,98.00
2022-09-11T09:39:37.226Z,99.20
2022-09-11T09:42:55.468Z,99.00
2022-09-11T09:45:40.213Z,99.90
2022-09-11T09:48:11.832Z,99.90
2022-09-11T09:50:41.880Z,99.90
2022-09-11T09:53:21.142Z,99.90
2022-09-11T09:55:56.199Z,99.90
2022-09-11T09:58:28.375Z,99.90
2022-09-11T10:00:58.067Z,99.90
2022-09-11T10:03:27.152Z,99.90
2022-09-11T10:05:57.090Z,99.90
2022-09-11T10:08:36.205Z,99.90
2022-09-11T10:11:07.325Z,99.90
2022-09-11T10:13:41.969Z,99.90
2022-09-11T10:16:22.339Z,99.90
2022-09-11T10:18:50.477Z,99.90
2022-09-11T10:21:29.853Z,99.90
2022-09-11T10:24:00.143Z,99.90
2022-09-11T10:26:36.364Z,99.90
2022-09-11T10:29:13.283Z,99.90
2022-09-11T10:31:49.749Z,99.90
2022-09-11T10:34:20.107Z,99.90
2022-09-11T10:36:55.524Z,99.90
2022-09-11T10:39:25.862Z,99.90
2022-09-11T10:41:59.230Z,98.90
2022-09-11T10:44:29.696Z,98.80
2022-09-11T10:47:06.288Z,96.60
2022-09-11T10:49:34.800Z,94.40
2022-09-11T10:52:15.319Z,93.60
2022-09-11T10:54:55.767Z,91.10
2022-09-11T10:57:29.939Z,92.80
2022-09-11T11:00:09.637Z,91.60
2022-09-11T11:02:41.106Z,89.60
2022-09-11T11:05:18.131Z,90.80
2022-09-11T11:08:09.508Z,89.60
2022-09-11T11:10:52.177Z,85.50
2022-09-11T11:13:45.219Z,83.60
2022-09-11T11:16:24.231Z,87.50
2022-09-11T11:19:12.587Z,91.50
2022-09-11T11:21:55.524Z,92.60
2022-09-11T11:24:47.460Z,94.70
2022-09-11T11:27:45.148Z,95.50
2022-09-11T11:30:19.342Z,96.40
2022-09-11T11:33:14.900Z,97.30
2022-09-11T11:35:57.846Z,98.50
2022-09-11T11:38:34.690Z,98.30
2022-09-11T11:41:10.499Z,98.20
2022-09-11T11:43:41.982Z,99.10
2022-09-11T11:46:18.044Z,99.50
2022-09-11T11:48:53.825Z,98.70
2022-09-11T11:51:27.125Z,99.30
2022-09-11T11:54:03.973Z,99.90
2022-09-11T11:56:40.764Z,99.90
2022-09-11T11:59:18.980Z,99.90
2022-09-11T12:01:54.446Z,99.90
2022-09-11T12:04:36.721Z,99.90
2022-09-11T12:07:09.071Z,99.90
2022-09-11T12:09:38.572Z,99.90
2022-09-11T12:12:08.741Z,99.90
2022-09-11T12:14:37.240Z,99.90
2022-09-11T12:17:20.910Z,99.90
2022-09-11T12:20:32.539Z,99.90
2022-09-11T12:23:04.448Z,99.30
2022-09-11T12:26:19.834Z,97.90
2022-09-11T12:28:48.726Z,97.30
2022-09-11T12:31:18.240Z,97.80
2022-09-11T12:33:57.325Z,97.90
2022-09-11T12:36:49.961Z,97.30
2022-09-11T12:39:27.578Z,96.20
2022-09-11T12:42:47.644Z,95.70
2022-09-11T12:45:37.056Z,95.30
2022-09-11T12:48:11.052Z,95.20
2022-09-11T12:50:45.835Z,94.70
2022-09-11T12:53:23.487Z,96.50
2022-09-11T12:55:59.107Z,97.30
2022-09-11T12:58:36.838Z,97.70
2022-09-11T13:01:18.626Z,97.90
2022-09-11T13:03:59.880Z,98.00
2022-09-11T13:06:39.816Z,98.60
2022-09-11T13:09:21.306Z,98.20
2022-09-11T13:11:52.354Z,98.50
2022-09-11T13:14:49.660Z,98.60
2022-09-11T13:17:30.167Z,98.20
2022-09-11T13:20:24.133Z,98.80
2022-09-11T13:22:57.658Z,99.20
2022-09-11T13:25:28.509Z,99.10
2022-09-11T13:28:01.125Z,98.20
2022-09-11T13:30:29.304Z,98.20
2022-09-11T13:33:07.489Z,98.60
2022-09-11T13:35:40.168Z,99.00
2022-09-11T13:38:11.829Z,98.80
2022-09-11T13:40:47.465Z,98.30
2022-09-11T13:43:20.661Z,98.70
2022-09-11T13:45:49.062Z,98.60
2022-09-11T13:48:25.820Z,98.30
2022-09-11T13:50:58.228Z,99.00
2022-09-11T13:53:27.271Z,98.70
2022-09-11T13:55:56.575Z,98.30
2022-09-11T13:58:26.621Z,98.90
2022-09-11T14:00:55.410Z,98.40
2022-09-11T14:03:27.897Z,98.30
2022-09-11T14:05:58.059Z,98.30
2022-09-11T14:08:34.185Z,98.50
2022-09-11T14:11:11.104Z,98.10
2022-09-11T14:13:48.048Z,98.90
2022-09-11T14:16:26.093Z,98.40
2022-09-11T14:18:59.468Z,97.60
2022-09-11T14:21:33.879Z,97.80
2022-09-11T14:24:02.685Z,97.60
2022-09-11T14:26:43.147Z,97.60
2022-09-11T14:29:25.688Z,96.90
2022-09-11T14:31:55.405Z,97.00
2022-09-11T14:34:28.347Z,96.90
2022-09-11T14:36:59.941Z,97.20
2022-09-11T14:39:34.844Z,98.30
2022-09-11T14:42:05.658Z,97.90
2022-09-11T14:44:35.495Z,99.00
2022-09-11T14:47:03.550Z,99.90
2022-09-11T14:49:31.647Z,99.80
2022-09-11T14:52:07.617Z,99.00
2022-09-11T14:54:35.709Z,99.30
2022-09-11T14:57:16.165Z,98.50
2022-09-11T14:59:46.829Z,98.10
2022-09-11T15:02:17.278Z,98.00
2022-09-11T15:04:46.747Z,98.00
2022-09-11T15:07:16.415Z,97.20
2022-09-11T15:09:44.693Z,98.00
2022-09-11T15:12:15.322Z,98.80
2022-09-11T15:14:59.948Z,98.40
2022-09-11T15:17:31.335Z,99.50
2022-09-11T15:20:00.613Z,99.90
2022-09-11T15:22:29.198Z,99.90
2022-09-11T15:24:57.194Z,99.90
2022-09-11T15:27:26.561Z,99.90
2022-09-11T15:29:55.167Z,99.90
2022-09-11T15:32:23.368Z,99.90
2022-09-11T15:34:51.629Z,99.90
2022-09-11T15:37:19.619Z,99.90
2022-09-11T15:39:47.661Z,99.90
2022-09-11T15:42:15.681Z,99.90
2022-09-11T15:44:45.976Z,99.90
2022-09-11T15:47:13.951Z,99.90
2022-09-11T15:49:44.266Z,99.90
2022-09-11T15:52:12.321Z,99.90
2022-09-11T15:54:40.476Z,99.90
2022-09-11T15:57:09.019Z,99.90
2022-09-11T15:59:37.047Z,99.90
2022-09-11T16:02:10.119Z,99.90
2022-09-11T16:04:38.613Z,99.90
2022-09-11T16:07:07.053Z,99.90
2022-09-11T16:09:35.153Z,99.90
2022-09-11T16:12:03.482Z,99.90
2022-09-11T16:14:34.029Z,99.90
2022-09-11T16:17:05.410Z,99.90
2022-09-11T16:19:36.122Z,99.90
2022-09-11T16:22:06.252Z,99.90
2022-09-11T16:24:38.049Z,99.90
2022-09-11T16:27:08.690Z,99.90
2022-09-11T16:30:15.995Z,99.90
2022-09-11T16:32:31.833Z,99.90
2022-09-11T16:35:01.116Z,99.90
2022-09-11T16:37:32.711Z,99.90
2022-09-11T16:40:02.274Z,99.90
2022-09-11T16:42:30.794Z,99.90
2022-09-11T16:44:58.842Z,99.90
2022-09-11T16:47:26.777Z,99.90
2022-09-11T16:50:10.029Z,99.90
2022-09-11T16:52:39.543Z,99.90
2022-09-11T16:55:10.229Z,99.90
2022-09-11T16:57:38.706Z,99.90
2022-09-11T17:00:09.280Z,99.90
2022-09-11T17:02:38.755Z,99.90
2022-09-11T17:05:08.223Z,99.90
2022-09-11T17:07:36.343Z,99.90
2022-09-11T17:10:06.512Z,99.90
2022-09-11T17:12:34.518Z,99.90
2022-09-11T17:15:02.605Z,99.90
2022-09-11T17:17:31.206Z,99.90
2022-09-11T17:19:59.264Z,99.90
2022-09-11T17:22:27.312Z,99.90
2022-09-11T17:24:57.477Z,99.90
2022-09-11T17:27:27.328Z,99.90
2022-09-11T17:29:55.322Z,99.90
2022-09-11T17:32:28.165Z,99.90
2022-09-11T17:34:57.005Z,99.90
2022-09-11T17:37:26.000Z,99.90
2022-09-11T17:39:54.224Z,99.90
2022-09-11T17:42:22.671Z,99.90
2022-09-11T17:44:51.984Z,99.90
2022-09-11T17:47:19.967Z,99.90
2022-09-11T17:49:48.358Z,99.90
2022-09-11T17:52:16.378Z,99.90
2022-09-11T17:54:44.317Z,99.90
2022-09-11T17:57:12.764Z,99.90
2022-09-11T17:59:40.696Z,99.90
2022-09-11T18:02:14.202Z,99.90
2022-09-11T18:04:43.806Z,99.90
2022-09-11T18:07:14.495Z,99.90
2022-09-11T18:09:43.485Z,99.90
2022-09-11T18:12:11.683Z,99.90
2022-09-11T18:14:42.910Z,99.90
2022-09-11T18:17:12.478Z,99.90
2022-09-11T18:19:40.617Z,99.90
2022-09-11T18:22:09.834Z,99.90
2022-09-11T18:24:39.755Z,99.90
2022-09-11T18:27:09.768Z,99.90
2022-09-11T18:29:39.924Z,99.90
2022-09-11T18:32:10.154Z,99.90
2022-09-11T18:34:39.948Z,99.90
2022-09-11T18:37:08.575Z,99.90
2022-09-11T18:39:38.273Z,99.90
2022-09-11T18:42:07.399Z,99.90
2022-09-11T18:44:35.788Z,99.90
2022-09-11T18:47:04.132Z,99.90
2022-09-11T18:49:34.750Z,99.90
2022-09-11T18:52:04.452Z,99.90
2022-09-11T18:54:33.550Z,99.90
2022-09-11T18:57:03.369Z,99.90
2022-09-11T18:59:33.402Z,99.90
2022-09-11T19:02:10.712Z,99.90
2022-09-11T19:04:39.017Z,99.90
2022-09-11T19:07:09.988Z,99.90
2022-09-11T19:09:38.356Z,99.90
2022-09-11T19:12:08.649Z,99.90
2022-09-11T19:14:37.725Z,99.90
2022-09-11T19:17:05.765Z,99.90
2022-09-11T19:19:33.749Z,99.90
2022-09-11T19:22:01.719Z,99.90
2022-09-11T19:24:31.608Z,99.90
2022-09-11T19:27:00.161Z,99.90
2022-09-11T19:29:28.422Z,99.90
2022-09-11T19:31:56.471Z,99.90
2022-09-11T19:34:24.795Z,99.90
2022-09-11T19:36:53.353Z,99.90
2022-09-11T19:39:21.727Z,99.90
2022-09-11T19:41:52.333Z,99.90
2022-09-11T19:44:20.970Z,99.90
2022-09-11T19:46:49.915Z,99.90
2022-09-11T19:49:18.249Z,99.90
2022-09-11T19:51:49.008Z,99.90
2022-09-11T19:54:19.473Z,99.90
2022-09-11T19:56:51.205Z,99.90
2022-09-11T19:59:20.789Z,99.90
2022-09-11T20:01:49.865Z,99.90
2022-09-11T20:04:19.032Z,99.90
2022-09-11T20:09:31.813Z,99.90
2022-09-11T20:12:01.428Z,99.90
2022-09-11T20:14:31.546Z,99.90
2022-09-11T20:17:00.977Z,99.90
2022-09-11T20:19:29.587Z,99.90
2022-09-11T20:21:57.683Z,99.90
2022-09-11T20:24:25.980Z,99.90
2022-09-11T20:26:55.343Z,99.90
2022-09-11T20:29:23.348Z,99.90
2022-09-11T20:31:54.026Z,99.90
2022-09-11T20:34:25.673Z,99.90
2022-09-11T20:36:53.730Z,99.90
2022-09-11T20:39:23.176Z,99.90
2022-09-11T20:41:51.115Z,99.90
2022-09-11T20:44:19.355Z,99.90
2022-09-11T20:46:48.327Z,99.90
2022-09-11T20:49:17.929Z,99.90
2022-09-11T20:51:46.854Z,99.90
2022-09-11T20:54:15.156Z,99.90
2022-09-11T20:56:44.345Z,99.90
2022-09-11T20:59:12.341Z,99.90
2022-09-11T21:01:40.424Z,99.90
2022-09-11T21:04:09.740Z,99.90
2022-09-11T21:06:40.859Z,99.90
2022-09-11T21:09:11.739Z,99.90
2022-09-11T21:11:41.481Z,99.90
2022-09-11T21:14:10.586Z,99.90
2022-09-11T21:16:39.093Z,99.90
2022-09-11T21:19:09.174Z,99.90
2022-09-11T21:21:40.051Z,99.90
2022-09-11T21:24:15.377Z,99.90
2022-09-11T21:26:43.567Z,99.90
2022-09-11T21:29:14.531Z,99.90
2022-09-11T21:31:42.585Z,99.90
2022-09-11T21:34:11.056Z,99.90
2022-09-11T21:36:40.587Z,99.90
2022-09-11T21:39:08.593Z,99.90
2022-09-11T21:41:36.569Z,99.90
2022-09-11T21:44:05.131Z,99.90
2022-09-11T21:46:33.331Z,99.90
2022-09-11T21:49:01.799Z,99.90
2022-09-11T21:51:30.415Z,99.90
2022-09-11T21:54:01.617Z,99.90
2022-09-11T21:56:31.912Z,99.90
2022-09-11T21:59:00.981Z,99.90
2022-09-11T22:01:29.910Z,99.90
2022-09-11T22:03:59.994Z,99.90
2022-09-11T22:06:29.031Z,99.90
2022-09-11T22:08:59.080Z,99.90
2022-09-11T22:11:27.463Z,99.90
2022-09-11T22:13:55.755Z,99.90
2022-09-11T22:16:24.014Z,99.90
2022-09-11T22:18:54.315Z,99.90
2022-09-11T22:21:22.516Z,99.90
2022-09-11T22:23:50.457Z,99.90
2022-09-11T22:26:23.551Z,99.90
2022-09-11T22:28:52.856Z,99.90
2022-09-11T22:31:23.626Z,99.90
2022-09-11T22:33:52.056Z,99.90
2022-09-11T22:36:23.544Z,99.90
2022-09-11T22:38:52.324Z,99.90
2022-09-11T22:41:22.498Z,99.90
2022-09-11T22:43:50.686Z,99.90
2022-09-11T22:46:20.669Z,99.90
2022-09-11T22:48:48.861Z,99.90
2022-09-11T22:51:17.579Z,99.90
2022-09-11T22:53:45.723Z,99.90
2022-09-11T22:56:14.131Z,99.90
2022-09-11T22:58:43.773Z,99.90
2022-09-11T23:01:21.095Z,99.90
2022-09-11T23:03:50.107Z,99.90
2022-09-11T23:06:35.984Z,99.90
2022-09-11T23:09:05.296Z,99.90
2022-09-11T23:11:33.269Z,99.90
2022-09-11T23:14:02.645Z,99.90
2022-09-11T23:16:31.694Z,99.90
2022-09-11T23:19:02.134Z,99.90
2022-09-11T23:21:32.718Z,99.90
2022-09-11T23:24:01.350Z,99.90
2022-09-11T23:26:30.993Z,99.90
2022-09-11T23:28:59.418Z,99.90
2022-09-11T23:31:32.113Z,99.90
2022-09-11T23:34:02.713Z,99.90
2022-09-11T23:36:32.338Z,99.90
2022-09-11T23:39:00.932Z,99.90
2022-09-11T23:41:29.321Z,99.90
2022-09-11T23:43:57.729Z,99.90
2022-09-11T23:46:25.837Z,99.90
2022-09-11T23:48:55.802Z,99.90
2022-09-11T23:51:23.745Z,99.90
2022-09-11T23:53:52.387Z,99.90
2022-09-11T23:56:22.412Z,99.90
2022-09-11T23:58:51.368Z,99.90
